Terminal Aerodrome Forecast
Issued by NWS Bismarck, ND

Home | Current Version | Previous Version | Text Only | Print | Product List | Glossary On
Versions: 1 2 3 4 5 6 7 8 9 10 11 12 13 14 15 16 17 18
111
FTUS43 KBIS 291128
TAFBIS
TAF
KBIS 291128Z 2912/3012 24004KT P6SM BKN130
     FM291400 24005KT P6SM -SHRA BKN090
     FM291800 24008KT P6SM -SHRA VCTS OVC070CB
     FM292300 18007KT P6SM BKN120
     FM300800 31007KT P6SM BKN100=

USA.gov is the U.S. government's official web portal to all federal, state and local government web resources and services.